sensor_id;sensor_type;location;lat;lon;timestamp;temperature;humidity
34768;DHT22;21755;43.608;1.236;2022-08-30T00:02:06;22.40;99.90
34768;DHT22;21755;43.608;1.236;2022-08-30T00:04:32;22.20;99.90
34768;DHT22;21755;43.608;1.236;2022-08-30T00:06:59;21.60;99.90
34768;DHT22;21755;43.608;1.236;2022-08-30T00:09:26;22.00;99.90
34768;DHT22;21755;43.608;1.236;2022-08-30T00:11:52;21.60;99.90
34768;DHT22;21755;43.608;1.236;2022-08-30T00:14:18;21.50;99.90
34768;DHT22;21755;43.608;1.236;2022-08-30T00:16:44;21.80;99.90
34768;DHT22;21755;43.608;1.236;2022-08-30T00:19:10;22.00;99.90
34768;DHT22;21755;43.608;1.236;2022-08-30T00:21:36;21.90;99.90
34768;DHT22;21755;43.608;1.236;2022-08-30T00:24:04;21.30;99.90
34768;DHT22;21755;43.608;1.236;2022-08-30T00:26:30;21.10;99.90
34768;DHT22;21755;43.608;1.236;2022-08-30T00:28:55;21.20;99.90
34768;DHT22;21755;43.608;1.236;2022-08-30T00:31:21;22.00;99.90
34768;DHT22;21755;43.608;1.236;2022-08-30T00:33:47;21.90;99.90
34768;DHT22;21755;43.608;1.236;2022-08-30T00:36:13;21.70;99.90
34768;DHT22;21755;43.608;1.236;2022-08-30T00:38:40;22.00;99.90
34768;DHT22;21755;43.608;1.236;2022-08-30T00:41:06;22.00;99.90
34768;DHT22;21755;43.608;1.236;2022-08-30T00:43:33;21.60;99.90
34768;DHT22;21755;43.608;1.236;2022-08-30T00:46:00;21.50;99.90
34768;DHT22;21755;43.608;1.236;2022-08-30T00:48:30;21.30;99.90
34768;DHT22;21755;43.608;1.236;2022-08-30T00:51:02;21.40;99.90
34768;DHT22;21755;43.608;1.236;2022-08-30T00:53:35;21.40;99.90
34768;DHT22;21755;43.608;1.236;2022-08-30T00:56:02;21.70;99.90
34768;DHT22;21755;43.608;1.236;2022-08-30T00:58:32;21.80;99.90
34768;DHT22;21755;43.608;1.236;2022-08-30T01:01:00;21.40;99.90
34768;DHT22;21755;43.608;1.236;2022-08-30T01:03:27;21.40;99.90
34768;DHT22;21755;43.608;1.236;2022-08-30T01:05:53;21.20;99.90
34768;DHT22;21755;43.608;1.236;2022-08-30T01:08:21;21.20;99.90
34768;DHT22;21755;43.608;1.236;2022-08-30T01:10:48;20.90;99.90
34768;DHT22;21755;43.608;1.236;2022-08-30T01:13:15;21.30;99.90
34768;DHT22;21755;43.608;1.236;2022-08-30T01:15:42;21.70;99.90
34768;DHT22;21755;43.608;1.236;2022-08-30T01:18:08;22.10;99.90
34768;DHT22;21755;43.608;1.236;2022-08-30T01:20:48;22.10;99.90
34768;DHT22;21755;43.608;1.236;2022-08-30T01:23:16;21.60;99.90
34768;DHT22;21755;43.608;1.236;2022-08-30T01:25:46;21.40;99.90
34768;DHT22;21755;43.608;1.236;2022-08-30T01:28:17;21.30;99.90
34768;DHT22;21755;43.608;1.236;2022-08-30T01:30:45;21.50;99.90
34768;DHT22;21755;43.608;1.236;2022-08-30T01:33:12;21.30;99.90
34768;DHT22;21755;43.608;1.236;2022-08-30T01:38:11;21.20;99.90
34768;DHT22;21755;43.608;1.236;2022-08-30T01:40:37;21.00;99.90
34768;DHT22;21755;43.608;1.236;2022-08-30T01:43:03;21.10;99.90
34768;DHT22;21755;43.608;1.236;2022-08-30T01:45:29;21.70;99.90
34768;DHT22;21755;43.608;1.236;2022-08-30T01:47:55;21.50;99.90
34768;DHT22;21755;43.608;1.236;2022-08-30T01:50:21;21.20;99.90
34768;DHT22;21755;43.608;1.236;2022-08-30T01:52:46;21.00;99.90
34768;DHT22;21755;43.608;1.236;2022-08-30T01:55:12;20.80;99.90
34768;DHT22;21755;43.608;1.236;2022-08-30T01:57:38;20.50;99.90
34768;DHT22;21755;43.608;1.236;2022-08-30T02:00:09;20.40;99.90
34768;DHT22;21755;43.608;1.236;2022-08-30T02:02:35;20.10;99.90
34768;DHT22;21755;43.608;1.236;2022-08-30T02:05:01;20.40;99.90
34768;DHT22;21755;43.608;1.236;2022-08-30T02:07:27;21.10;99.90
34768;DHT22;21755;43.608;1.236;2022-08-30T02:09:53;21.40;99.90
34768;DHT22;21755;43.608;1.236;2022-08-30T02:12:19;22.00;99.90
34768;DHT22;21755;43.608;1.236;2022-08-30T02:14:45;22.10;99.90
34768;DHT22;21755;43.608;1.236;2022-08-30T02:17:13;21.30;99.90
34768;DHT22;21755;43.608;1.236;2022-08-30T02:19:40;20.90;99.90
34768;DHT22;21755;43.608;1.236;2022-08-30T02:22:06;20.80;99.90
34768;DHT22;21755;43.608;1.236;2022-08-30T02:24:32;21.20;99.90
34768;DHT22;21755;43.608;1.236;2022-08-30T02:26:58;21.20;99.90
34768;DHT22;21755;43.608;1.236;2022-08-30T02:29:25;21.60;99.90
34768;DHT22;21755;43.608;1.236;2022-08-30T02:31:51;21.90;99.90
34768;DHT22;21755;43.608;1.236;2022-08-30T02:34:17;21.70;99.90
34768;DHT22;21755;43.608;1.236;2022-08-30T02:36:44;21.60;99.90
34768;DHT22;21755;43.608;1.236;2022-08-30T02:39:11;21.20;99.90
34768;DHT22;21755;43.608;1.236;2022-08-30T02:41:38;21.30;99.90
34768;DHT22;21755;43.608;1.236;2022-08-30T02:44:05;21.60;99.90
34768;DHT22;21755;43.608;1.236;2022-08-30T02:46:31;21.70;99.90
34768;DHT22;21755;43.608;1.236;2022-08-30T02:48:57;21.40;99.90
34768;DHT22;21755;43.608;1.236;2022-08-30T02:51:23;21.40;99.90
34768;DHT22;21755;43.608;1.236;2022-08-30T02:53:49;21.30;99.90
34768;DHT22;21755;43.608;1.236;2022-08-30T02:56:15;20.90;99.90
34768;DHT22;21755;43.608;1.236;2022-08-30T02:58:42;21.00;99.90
34768;DHT22;21755;43.608;1.236;2022-08-30T03:01:10;20.80;99.90
34768;DHT22;21755;43.608;1.236;2022-08-30T03:03:40;21.20;99.90
34768;DHT22;21755;43.608;1.236;2022-08-30T03:06:07;21.40;99.90
34768;DHT22;21755;43.608;1.236;2022-08-30T03:08:35;21.90;99.90
34768;DHT22;21755;43.608;1.236;2022-08-30T03:11:01;21.70;99.90
34768;DHT22;21755;43.608;1.236;2022-08-30T03:13:28;21.00;99.90
34768;DHT22;21755;43.608;1.236;2022-08-30T03:15:54;21.00;99.90
34768;DHT22;21755;43.608;1.236;2022-08-30T03:18:21;21.10;99.90
34768;DHT22;21755;43.608;1.236;2022-08-30T03:20:47;21.80;99.90
34768;DHT22;21755;43.608;1.236;2022-08-30T03:23:14;21.10;99.90
34768;DHT22;21755;43.608;1.236;2022-08-30T03:25:40;20.60;99.90
34768;DHT22;21755;43.608;1.236;2022-08-30T03:28:06;20.50;99.90
34768;DHT22;21755;43.608;1.236;2022-08-30T03:30:32;20.60;99.90
34768;DHT22;21755;43.608;1.236;2022-08-30T03:33:00;21.10;99.90
34768;DHT22;21755;43.608;1.236;2022-08-30T03:35:26;22.00;99.90
34768;DHT22;21755;43.608;1.236;2022-08-30T03:37:52;21.60;99.90
34768;DHT22;21755;43.608;1.236;2022-08-30T03:40:20;21.70;99.90
34768;DHT22;21755;43.608;1.236;2022-08-30T03:42:46;21.00;99.90
34768;DHT22;21755;43.608;1.236;2022-08-30T03:45:15;20.40;99.90
34768;DHT22;21755;43.608;1.236;2022-08-30T03:47:41;20.00;99.90
34768;DHT22;21755;43.608;1.236;2022-08-30T03:50:08;19.90;99.90
34768;DHT22;21755;43.608;1.236;2022-08-30T03:52:34;20.00;99.90
34768;DHT22;21755;43.608;1.236;2022-08-30T03:55:00;20.40;99.90
34768;DHT22;21755;43.608;1.236;2022-08-30T03:57:27;20.40;99.90
34768;DHT22;21755;43.608;1.236;2022-08-30T03:59:53;20.70;99.90
34768;DHT22;21755;43.608;1.236;2022-08-30T04:02:19;20.80;99.90
34768;DHT22;21755;43.608;1.236;2022-08-30T04:04:45;21.00;99.90
34768;DHT22;21755;43.608;1.236;2022-08-30T04:07:11;20.80;99.90
34768;DHT22;21755;43.608;1.236;2022-08-30T04:09:37;20.70;99.90
34768;DHT22;21755;43.608;1.236;2022-08-30T04:12:03;20.30;99.90
34768;DHT22;21755;43.608;1.236;2022-08-30T04:14:29;19.90;99.90
34768;DHT22;21755;43.608;1.236;2022-08-30T04:16:55;20.00;99.90
34768;DHT22;21755;43.608;1.236;2022-08-30T04:19:23;20.60;99.90
34768;DHT22;21755;43.608;1.236;2022-08-30T04:21:49;20.90;99.90
34768;DHT22;21755;43.608;1.236;2022-08-30T04:24:15;21.00;99.90
34768;DHT22;21755;43.608;1.236;2022-08-30T04:26:41;20.70;99.90
34768;DHT22;21755;43.608;1.236;2022-08-30T04:29:07;20.70;99.90
34768;DHT22;21755;43.608;1.236;2022-08-30T04:31:33;20.30;99.90
34768;DHT22;21755;43.608;1.236;2022-08-30T04:33:59;20.50;99.90
34768;DHT22;21755;43.608;1.236;2022-08-30T04:36:25;20.50;99.90
34768;DHT22;21755;43.608;1.236;2022-08-30T04:38:51;20.60;99.90
34768;DHT22;21755;43.608;1.236;2022-08-30T04:41:18;20.90;99.90
34768;DHT22;21755;43.608;1.236;2022-08-30T04:43:46;21.30;99.90
34768;DHT22;21755;43.608;1.236;2022-08-30T04:46:15;21.50;99.90
34768;DHT22;21755;43.608;1.236;2022-08-30T04:48:41;21.00;99.90
34768;DHT22;21755;43.608;1.236;2022-08-30T04:51:09;21.30;99.90
34768;DHT22;21755;43.608;1.236;2022-08-30T04:53:37;21.40;99.90
34768;DHT22;21755;43.608;1.236;2022-08-30T04:56:08;21.10;99.90
34768;DHT22;21755;43.608;1.236;2022-08-30T04:58:34;21.10;99.90
34768;DHT22;21755;43.608;1.236;2022-08-30T05:01:00;21.30;99.90
34768;DHT22;21755;43.608;1.236;2022-08-30T05:03:26;20.80;99.90
34768;DHT22;21755;43.608;1.236;2022-08-30T05:05:52;20.40;99.90
34768;DHT22;21755;43.608;1.236;2022-08-30T05:08:19;20.10;99.90
34768;DHT22;21755;43.608;1.236;2022-08-30T05:10:51;20.00;99.90
34768;DHT22;21755;43.608;1.236;2022-08-30T05:13:19;21.50;99.90
34768;DHT22;21755;43.608;1.236;2022-08-30T05:15:46;22.40;99.90
34768;DHT22;21755;43.608;1.236;2022-08-30T05:18:12;22.30;99.90
34768;DHT22;21755;43.608;1.236;2022-08-30T05:20:38;22.30;99.90
34768;DHT22;21755;43.608;1.236;2022-08-30T05:23:05;22.60;99.90
34768;DHT22;21755;43.608;1.236;2022-08-30T05:25:34;23.10;99.90
34768;DHT22;21755;43.608;1.236;2022-08-30T05:28:02;23.10;99.90
34768;DHT22;21755;43.608;1.236;2022-08-30T05:30:31;22.90;99.90
34768;DHT22;21755;43.608;1.236;2022-08-30T05:32:58;23.00;99.90
34768;DHT22;21755;43.608;1.236;2022-08-30T05:35:23;23.00;99.90
34768;DHT22;21755;43.608;1.236;2022-08-30T05:37:49;23.00;99.90
34768;DHT22;21755;43.608;1.236;2022-08-30T05:40:16;22.70;99.90
34768;DHT22;21755;43.608;1.236;2022-08-30T05:42:45;22.80;99.90
34768;DHT22;21755;43.608;1.236;2022-08-30T05:45:12;23.10;99.90
34768;DHT22;21755;43.608;1.236;2022-08-30T05:47:38;23.10;99.90
34768;DHT22;21755;43.608;1.236;2022-08-30T05:50:05;22.70;99.90
34768;DHT22;21755;43.608;1.236;2022-08-30T05:52:34;22.80;99.90
34768;DHT22;21755;43.608;1.236;2022-08-30T05:55:00;22.90;99.90
34768;DHT22;21755;43.608;1.236;2022-08-30T05:57:31;22.70;99.90
34768;DHT22;21755;43.608;1.236;2022-08-30T06:00:00;22.60;99.90
34768;DHT22;21755;43.608;1.236;2022-08-30T06:02:26;22.70;99.90
34768;DHT22;21755;43.608;1.236;2022-08-30T06:04:52;22.70;99.90
34768;DHT22;21755;43.608;1.236;2022-08-30T06:07:18;22.80;99.90
34768;DHT22;21755;43.608;1.236;2022-08-30T06:09:44;22.20;99.90
34768;DHT22;21755;43.608;1.236;2022-08-30T06:12:10;21.40;99.90
34768;DHT22;21755;43.608;1.236;2022-08-30T06:14:35;21.20;99.90
34768;DHT22;21755;43.608;1.236;2022-08-30T06:17:03;21.50;99.90
34768;DHT22;21755;43.608;1.236;2022-08-30T06:19:29;21.90;99.90
34768;DHT22;21755;43.608;1.236;2022-08-30T06:21:55;22.50;99.90
34768;DHT22;21755;43.608;1.236;2022-08-30T06:24:21;22.60;99.90
34768;DHT22;21755;43.608;1.236;2022-08-30T06:26:47;22.50;99.90
34768;DHT22;21755;43.608;1.236;2022-08-30T06:29:17;22.60;99.90
34768;DHT22;21755;43.608;1.236;2022-08-30T06:31:44;22.90;99.90
34768;DHT22;21755;43.608;1.236;2022-08-30T06:34:10;23.10;99.90
34768;DHT22;21755;43.608;1.236;2022-08-30T06:36:36;23.10;99.90
34768;DHT22;21755;43.608;1.236;2022-08-30T06:39:03;23.20;99.90
34768;DHT22;21755;43.608;1.236;2022-08-30T06:41:31;23.20;99.90
34768;DHT22;21755;43.608;1.236;2022-08-30T06:44:00;23.20;99.90
34768;DHT22;21755;43.608;1.236;2022-08-30T06:46:29;22.70;99.90
34768;DHT22;21755;43.608;1.236;2022-08-30T06:48:57;22.10;99.90
34768;DHT22;21755;43.608;1.236;2022-08-30T06:51:31;21.80;99.90
34768;DHT22;21755;43.608;1.236;2022-08-30T06:53:58;21.70;99.90
34768;DHT22;21755;43.608;1.236;2022-08-30T06:56:24;21.60;99.90
34768;DHT22;21755;43.608;1.236;2022-08-30T06:58:54;21.50;99.90
34768;DHT22;21755;43.608;1.236;2022-08-30T07:01:25;21.50;99.90
34768;DHT22;21755;43.608;1.236;2022-08-30T07:03:52;21.50;99.90
34768;DHT22;21755;43.608;1.236;2022-08-30T07:06:19;21.50;99.90
34768;DHT22;21755;43.608;1.236;2022-08-30T07:08:46;21.60;99.90
34768;DHT22;21755;43.608;1.236;2022-08-30T07:11:12;21.70;99.90
34768;DHT22;21755;43.608;1.236;2022-08-30T07:13:38;21.90;99.90
34768;DHT22;21755;43.608;1.236;2022-08-30T07:16:11;21.90;99.90
34768;DHT22;21755;43.608;1.236;2022-08-30T07:18:38;22.00;99.90
34768;DHT22;21755;43.608;1.236;2022-08-30T07:21:19;21.90;99.90
34768;DHT22;21755;43.608;1.236;2022-08-30T07:23:47;22.00;99.90
34768;DHT22;21755;43.608;1.236;2022-08-30T07:26:19;22.10;99.90
34768;DHT22;21755;43.608;1.236;2022-08-30T07:28:46;22.30;99.90
34768;DHT22;21755;43.608;1.236;2022-08-30T07:31:14;22.30;99.90
34768;DHT22;21755;43.608;1.236;2022-08-30T07:33:40;22.20;99.90
34768;DHT22;21755;43.608;1.236;2022-08-30T07:36:07;22.20;99.90
34768;DHT22;21755;43.608;1.236;2022-08-30T07:38:33;22.50;99.90
34768;DHT22;21755;43.608;1.236;2022-08-30T07:40:59;22.60;99.90
34768;DHT22;21755;43.608;1.236;2022-08-30T07:43:30;22.70;99.90
34768;DHT22;21755;43.608;1.236;2022-08-30T07:46:05;22.70;99.90
34768;DHT22;21755;43.608;1.236;2022-08-30T07:48:32;22.70;99.90
34768;DHT22;21755;43.608;1.236;2022-08-30T07:50:58;22.90;99.90
34768;DHT22;21755;43.608;1.236;2022-08-30T07:53:24;23.00;99.90
34768;DHT22;21755;43.608;1.236;2022-08-30T07:55:51;23.10;99.90
34768;DHT22;21755;43.608;1.236;2022-08-30T07:58:17;23.20;99.90
34768;DHT22;21755;43.608;1.236;2022-08-30T08:00:43;23.30;99.90
34768;DHT22;21755;43.608;1.236;2022-08-30T08:03:09;23.50;99.90
34768;DHT22;21755;43.608;1.236;2022-08-30T08:05:37;23.40;99.90
34768;DHT22;21755;43.608;1.236;2022-08-30T08:08:03;23.40;99.90
34768;DHT22;21755;43.608;1.236;2022-08-30T08:10:30;23.40;99.90
34768;DHT22;21755;43.608;1.236;2022-08-30T08:12:56;23.50;99.90
34768;DHT22;21755;43.608;1.236;2022-08-30T08:15:22;23.70;99.90
34768;DHT22;21755;43.608;1.236;2022-08-30T08:17:50;23.80;99.90
34768;DHT22;21755;43.608;1.236;2022-08-30T08:20:16;23.80;99.90
34768;DHT22;21755;43.608;1.236;2022-08-30T08:22:42;23.90;99.90
34768;DHT22;21755;43.608;1.236;2022-08-30T08:25:08;24.00;99.90
34768;DHT22;21755;43.608;1.236;2022-08-30T08:27:34;24.00;99.90
34768;DHT22;21755;43.608;1.236;2022-08-30T08:30:03;23.90;99.90
34768;DHT22;21755;43.608;1.236;2022-08-30T08:32:29;23.70;99.90
34768;DHT22;21755;43.608;1.236;2022-08-30T08:34:54;23.80;99.90
34768;DHT22;21755;43.608;1.236;2022-08-30T08:37:20;23.90;99.90
34768;DHT22;21755;43.608;1.236;2022-08-30T08:39:46;24.00;99.90
34768;DHT22;21755;43.608;1.236;2022-08-30T08:45:10;23.90;99.90
34768;DHT22;21755;43.608;1.236;2022-08-30T08:50:12;24.50;99.90
34768;DHT22;21755;43.608;1.236;2022-08-30T08:53:00;24.50;99.90
34768;DHT22;21755;43.608;1.236;2022-08-30T08:55:49;24.60;99.90
34768;DHT22;21755;43.608;1.236;2022-08-30T08:58:31;24.60;99.90
34768;DHT22;21755;43.608;1.236;2022-08-30T09:01:00;24.50;99.90
34768;DHT22;21755;43.608;1.236;2022-08-30T09:03:28;24.70;99.90
34768;DHT22;21755;43.608;1.236;2022-08-30T09:05:55;24.80;99.90
34768;DHT22;21755;43.608;1.236;2022-08-30T09:08:22;24.90;99.90
34768;DHT22;21755;43.608;1.236;2022-08-30T09:10:58;25.00;99.90
34768;DHT22;21755;43.608;1.236;2022-08-30T09:13:26;25.00;99.90
34768;DHT22;21755;43.608;1.236;2022-08-30T09:15:53;25.00;99.90
34768;DHT22;21755;43.608;1.236;2022-08-30T09:18:21;25.00;99.90
34768;DHT22;21755;43.608;1.236;2022-08-30T09:21:06;25.30;99.90
34768;DHT22;21755;43.608;1.236;2022-08-30T09:23:32;25.40;99.90
34768;DHT22;21755;43.608;1.236;2022-08-30T09:26:06;25.30;99.90
34768;DHT22;21755;43.608;1.236;2022-08-30T09:28:51;25.40;99.90
34768;DHT22;21755;43.608;1.236;2022-08-30T09:31:30;25.50;99.90
34768;DHT22;21755;43.608;1.236;2022-08-30T09:34:05;25.50;99.90
34768;DHT22;21755;43.608;1.236;2022-08-30T09:36:39;25.70;99.90
34768;DHT22;21755;43.608;1.236;2022-08-30T09:41:42;26.00;99.90
34768;DHT22;21755;43.608;1.236;2022-08-30T09:44:26;26.10;99.90
34768;DHT22;21755;43.608;1.236;2022-08-30T09:46:59;26.20;99.90
34768;DHT22;21755;43.608;1.236;2022-08-30T09:49:35;26.50;99.90
34768;DHT22;21755;43.608;1.236;2022-08-30T09:55:20;26.60;99.90
34768;DHT22;21755;43.608;1.236;2022-08-30T09:58:21;26.50;99.90
34768;DHT22;21755;43.608;1.236;2022-08-30T10:01:10;26.60;99.90
34768;DHT22;21755;43.608;1.236;2022-08-30T10:03:41;26.50;99.90
34768;DHT22;21755;43.608;1.236;2022-08-30T10:09:07;26.70;99.90
34768;DHT22;21755;43.608;1.236;2022-08-30T10:22:10;26.90;99.90
34768;DHT22;21755;43.608;1.236;2022-08-30T10:25:13;27.00;99.90
34768;DHT22;21755;43.608;1.236;2022-08-30T10:30:16;27.30;99.90
34768;DHT22;21755;43.608;1.236;2022-08-30T10:32:51;27.20;99.90
34768;DHT22;21755;43.608;1.236;2022-08-30T10:35:24;26.90;99.90
34768;DHT22;21755;43.608;1.236;2022-08-30T10:38:03;26.90;99.90
34768;DHT22;21755;43.608;1.236;2022-08-30T10:40:35;27.30;99.90
34768;DHT22;21755;43.608;1.236;2022-08-30T10:46:15;27.10;99.90
34768;DHT22;21755;43.608;1.236;2022-08-30T10:48:43;27.40;99.90
34768;DHT22;21755;43.608;1.236;2022-08-30T10:52:02;27.60;99.90
34768;DHT22;21755;43.608;1.236;2022-08-30T10:56:56;27.80;99.90
34768;DHT22;21755;43.608;1.236;2022-08-30T10:59:22;27.90;99.90
34768;DHT22;21755;43.608;1.236;2022-08-30T11:07:40;28.50;99.90
34768;DHT22;21755;43.608;1.236;2022-08-30T11:13:17;28.60;99.90
34768;DHT22;21755;43.608;1.236;2022-08-30T11:16:12;28.40;99.90
34768;DHT22;21755;43.608;1.236;2022-08-30T11:37:38;29.00;99.90
34768;DHT22;21755;43.608;1.236;2022-08-30T11:42:49;28.90;99.90
34768;DHT22;21755;43.608;1.236;2022-08-30T11:47:59;28.60;99.90
34768;DHT22;21755;43.608;1.236;2022-08-30T11:53:28;29.10;99.90
34768;DHT22;21755;43.608;1.236;2022-08-30T12:03:58;29.30;99.90
34768;DHT22;21755;43.608;1.236;2022-08-30T12:14:34;29.40;99.90
34768;DHT22;21755;43.608;1.236;2022-08-30T12:17:02;29.70;99.90
34768;DHT22;21755;43.608;1.236;2022-08-30T12:19:55;30.00;99.90
34768;DHT22;21755;43.608;1.236;2022-08-30T12:22:22;30.20;99.90
34768;DHT22;21755;43.608;1.236;2022-08-30T12:24:51;29.60;99.90
34768;DHT22;21755;43.608;1.236;2022-08-30T12:27:27;29.70;99.90
34768;DHT22;21755;43.608;1.236;2022-08-30T12:29:58;29.70;99.90
34768;DHT22;21755;43.608;1.236;2022-08-30T12:32:27;29.80;99.90
34768;DHT22;21755;43.608;1.236;2022-08-30T12:34:55;29.80;99.90
34768;DHT22;21755;43.608;1.236;2022-08-30T12:37:25;29.90;99.90
34768;DHT22;21755;43.608;1.236;2022-08-30T12:42:29;29.80;99.90
34768;DHT22;21755;43.608;1.236;2022-08-30T12:45:04;29.70;99.90
34768;DHT22;21755;43.608;1.236;2022-08-30T12:50:18;30.40;99.90
34768;DHT22;21755;43.608;1.236;2022-08-30T12:52:47;30.30;99.90
34768;DHT22;21755;43.608;1.236;2022-08-30T12:55:23;30.40;99.90
34768;DHT22;21755;43.608;1.236;2022-08-30T13:00:37;30.40;99.90
34768;DHT22;21755;43.608;1.236;2022-08-30T13:03:26;30.30;99.90
34768;DHT22;21755;43.608;1.236;2022-08-30T13:05:53;30.60;99.90
34768;DHT22;21755;43.608;1.236;2022-08-30T13:08:30;30.80;99.90
34768;DHT22;21755;43.608;1.236;2022-08-30T13:11:05;30.50;99.90
34768;DHT22;21755;43.608;1.236;2022-08-30T13:13:44;30.40;99.90
34768;DHT22;21755;43.608;1.236;2022-08-30T13:16:23;30.50;99.90
34768;DHT22;21755;43.608;1.236;2022-08-30T13:21:51;30.60;98.80
34768;DHT22;21755;43.608;1.236;2022-08-30T13:24:17;30.90;99.40
34768;DHT22;21755;43.608;1.236;2022-08-30T13:26:43;30.80;99.50
34768;DHT22;21755;43.608;1.236;2022-08-30T13:29:18;30.60;99.90
34768;DHT22;21755;43.608;1.236;2022-08-30T13:31:45;30.90;99.90
34768;DHT22;21755;43.608;1.236;2022-08-30T13:34:12;30.80;99.90
34768;DHT22;21755;43.608;1.236;2022-08-30T13:37:04;30.60;99.90
34768;DHT22;21755;43.608;1.236;2022-08-30T13:39:32;30.50;99.90
34768;DHT22;21755;43.608;1.236;2022-08-30T13:41:58;30.80;99.90
34768;DHT22;21755;43.608;1.236;2022-08-30T13:44:24;30.80;99.90
34768;DHT22;21755;43.608;1.236;2022-08-30T13:46:53;30.80;99.80
34768;DHT22;21755;43.608;1.236;2022-08-30T13:49:28;30.80;99.90
34768;DHT22;21755;43.608;1.236;2022-08-30T13:51:54;30.90;99.90
34768;DHT22;21755;43.608;1.236;2022-08-30T13:54:20;31.50;99.30
34768;DHT22;21755;43.608;1.236;2022-08-30T13:56:52;31.70;98.40
34768;DHT22;21755;43.608;1.236;2022-08-30T13:59:19;31.40;98.50
34768;DHT22;21755;43.608;1.236;2022-08-30T14:01:46;31.30;99.00
34768;DHT22;21755;43.608;1.236;2022-08-30T14:04:12;31.30;97.20
34768;DHT22;21755;43.608;1.236;2022-08-30T14:06:38;31.10;95.50
34768;DHT22;21755;43.608;1.236;2022-08-30T14:09:04;31.50;95.90
34768;DHT22;21755;43.608;1.236;2022-08-30T14:11:33;31.50;96.50
34768;DHT22;21755;43.608;1.236;2022-08-30T14:13:59;31.40;96.70
34768;DHT22;21755;43.608;1.236;2022-08-30T14:16:26;31.30;96.30
34768;DHT22;21755;43.608;1.236;2022-08-30T14:18:52;31.40;96.80
34768;DHT22;21755;43.608;1.236;2022-08-30T14:21:18;31.30;96.90
34768;DHT22;21755;43.608;1.236;2022-08-30T14:23:44;31.20;97.00
34768;DHT22;21755;43.608;1.236;2022-08-30T14:26:19;31.40;95.70
34768;DHT22;21755;43.608;1.236;2022-08-30T14:28:45;31.50;96.30
34768;DHT22;21755;43.608;1.236;2022-08-30T14:31:11;31.40;96.40
34768;DHT22;21755;43.608;1.236;2022-08-30T14:33:37;31.30;96.20
34768;DHT22;21755;43.608;1.236;2022-08-30T14:36:04;31.50;95.90
34768;DHT22;21755;43.608;1.236;2022-08-30T14:38:30;31.50;94.70
34768;DHT22;21755;43.608;1.236;2022-08-30T14:40:56;31.40;95.20
34768;DHT22;21755;43.608;1.236;2022-08-30T14:43:22;31.50;96.20
34768;DHT22;21755;43.608;1.236;2022-08-30T14:45:48;31.40;96.40
34768;DHT22;21755;43.608;1.236;2022-08-30T14:48:14;31.40;96.50
34768;DHT22;21755;43.608;1.236;2022-08-30T14:50:40;31.70;96.20
34768;DHT22;21755;43.608;1.236;2022-08-30T14:53:06;31.60;95.80
34768;DHT22;21755;43.608;1.236;2022-08-30T14:55:33;31.60;96.10
34768;DHT22;21755;43.608;1.236;2022-08-30T14:57:59;31.40;96.00
34768;DHT22;21755;43.608;1.236;2022-08-30T15:00:26;31.60;96.00
34768;DHT22;21755;43.608;1.236;2022-08-30T15:02:52;31.60;95.50
34768;DHT22;21755;43.608;1.236;2022-08-30T15:05:18;31.50;95.10
34768;DHT22;21755;43.608;1.236;2022-08-30T15:07:47;31.60;95.70
34768;DHT22;21755;43.608;1.236;2022-08-30T15:10:15;31.60;96.10
34768;DHT22;21755;43.608;1.236;2022-08-30T15:12:48;31.60;94.90
34768;DHT22;21755;43.608;1.236;2022-08-30T15:15:16;31.30;95.10
34768;DHT22;21755;43.608;1.236;2022-08-30T15:17:45;31.30;95.40
34768;DHT22;21755;43.608;1.236;2022-08-30T15:20:11;31.50;95.00
34768;DHT22;21755;43.608;1.236;2022-08-30T15:22:37;31.40;94.50
34768;DHT22;21755;43.608;1.236;2022-08-30T15:25:04;31.60;94.70
34768;DHT22;21755;43.608;1.236;2022-08-30T15:27:30;31.60;94.60
34768;DHT22;21755;43.608;1.236;2022-08-30T15:29:56;31.60;94.30
34768;DHT22;21755;43.608;1.236;2022-08-30T15:32:22;31.50;94.20
34768;DHT22;21755;43.608;1.236;2022-08-30T15:34:48;31.70;94.20
34768;DHT22;21755;43.608;1.236;2022-08-30T15:37:14;31.70;93.70
34768;DHT22;21755;43.608;1.236;2022-08-30T15:39:47;31.80;93.30
34768;DHT22;21755;43.608;1.236;2022-08-30T15:42:14;31.80;93.30
34768;DHT22;21755;43.608;1.236;2022-08-30T15:44:40;31.80;93.50
34768;DHT22;21755;43.608;1.236;2022-08-30T15:47:06;31.60;93.00
34768;DHT22;21755;43.608;1.236;2022-08-30T15:49:32;31.60;93.20
34768;DHT22;21755;43.608;1.236;2022-08-30T15:52:00;31.60;93.20
34768;DHT22;21755;43.608;1.236;2022-08-30T15:54:26;31.60;93.50
34768;DHT22;21755;43.608;1.236;2022-08-30T15:56:52;31.50;93.30
34768;DHT22;21755;43.608;1.236;2022-08-30T15:59:27;31.50;93.50
34768;DHT22;21755;43.608;1.236;2022-08-30T16:01:55;31.50;93.30
34768;DHT22;21755;43.608;1.236;2022-08-30T16:04:22;31.40;93.10
34768;DHT22;21755;43.608;1.236;2022-08-30T16:06:48;31.50;93.30
34768;DHT22;21755;43.608;1.236;2022-08-30T16:09:14;31.60;93.20
34768;DHT22;21755;43.608;1.236;2022-08-30T16:11:41;31.60;93.40
34768;DHT22;21755;43.608;1.236;2022-08-30T16:14:07;31.50;92.90
34768;DHT22;21755;43.608;1.236;2022-08-30T16:16:34;31.60;93.00
34768;DHT22;21755;43.608;1.236;2022-08-30T16:19:02;31.50;93.00
34768;DHT22;21755;43.608;1.236;2022-08-30T16:21:31;31.50;93.00
34768;DHT22;21755;43.608;1.236;2022-08-30T16:23:59;31.60;92.90
34768;DHT22;21755;43.608;1.236;2022-08-30T16:26:26;31.50;92.70
34768;DHT22;21755;43.608;1.236;2022-08-30T16:28:53;31.30;92.60
34768;DHT22;21755;43.608;1.236;2022-08-30T16:31:19;31.40;93.10
34768;DHT22;21755;43.608;1.236;2022-08-30T16:33:46;31.50;92.80
34768;DHT22;21755;43.608;1.236;2022-08-30T16:36:12;31.50;92.30
34768;DHT22;21755;43.608;1.236;2022-08-30T16:38:40;31.50;92.40
34768;DHT22;21755;43.608;1.236;2022-08-30T16:41:11;31.50;92.40
34768;DHT22;21755;43.608;1.236;2022-08-30T16:43:38;31.50;92.10
34768;DHT22;21755;43.608;1.236;2022-08-30T16:46:07;31.50;92.40
34768;DHT22;21755;43.608;1.236;2022-08-30T16:48:33;31.40;92.00
34768;DHT22;21755;43.608;1.236;2022-08-30T16:50:59;31.40;92.10
34768;DHT22;21755;43.608;1.236;2022-08-30T16:53:27;31.20;92.10
34768;DHT22;21755;43.608;1.236;2022-08-30T16:55:53;31.20;91.90
34768;DHT22;21755;43.608;1.236;2022-08-30T16:58:19;31.20;91.50
34768;DHT22;21755;43.608;1.236;2022-08-30T17:00:49;31.20;91.60
34768;DHT22;21755;43.608;1.236;2022-08-30T17:03:16;31.20;91.20
34768;DHT22;21755;43.608;1.236;2022-08-30T17:05:43;31.10;91.40
34768;DHT22;21755;43.608;1.236;2022-08-30T17:08:09;31.10;91.50
34768;DHT22;21755;43.608;1.236;2022-08-30T17:10:36;31.00;91.50
34768;DHT22;21755;43.608;1.236;2022-08-30T17:13:02;31.00;91.50
34768;DHT22;21755;43.608;1.236;2022-08-30T17:15:29;31.00;91.30
34768;DHT22;21755;43.608;1.236;2022-08-30T17:17:55;30.90;90.80